createdAt,value
2023-02-09T00:00:13.276Z,-1.00
2023-02-09T00:02:42.694Z,-1.00
2023-02-09T00:05:12.083Z,-1.00
2023-02-09T00:07:40.983Z,-1.00
2023-02-09T00:10:10.750Z,-1.10
2023-02-09T00:12:57.077Z,-1.10
2023-02-09T00:15:27.349Z,-1.10
2023-02-09T00:17:56.139Z,-1.10
2023-02-09T00:20:25.212Z,-1.10
2023-02-09T00:22:54.025Z,-1.10
2023-02-09T00:25:22.779Z,-1.10
2023-02-09T00:27:51.645Z,-1.20
2023-02-09T00:30:20.798Z,-1.20
2023-02-09T00:32:50.958Z,-1.20
2023-02-09T00:35:20.632Z,-1.20
2023-02-09T00:37:49.557Z,-1.20
2023-02-09T00:40:18.812Z,-1.20
2023-02-09T00:42:47.649Z,-1.20
2023-02-09T00:45:16.545Z,-1.20
2023-02-09T00:47:45.505Z,-1.20
2023-02-09T00:50:16.012Z,-1.20
2023-02-09T00:52:44.723Z,-1.30
2023-02-09T00:55:13.623Z,-1.30
2023-02-09T00:57:42.455Z,-1.30
2023-02-09T01:00:15.621Z,-1.30
2023-02-09T01:02:44.507Z,-1.30
2023-02-09T01:05:14.695Z,-1.30
2023-02-09T01:07:43.524Z,-1.30
2023-02-09T01:10:12.567Z,-1.30
2023-02-09T01:12:42.323Z,-1.30
2023-02-09T01:15:15.507Z,-1.40
2023-02-09T01:17:44.301Z,-1.40
2023-02-09T01:20:16.435Z,-1.40
2023-02-09T01:22:45.286Z,-1.50
2023-02-09T01:25:14.055Z,-1.50
2023-02-09T01:27:42.906Z,-1.60
2023-02-09T01:30:13.241Z,-1.60
2023-02-09T01:32:42.057Z,-1.60
2023-02-09T01:35:11.416Z,-1.60
2023-02-09T01:37:41.678Z,-1.60
2023-02-09T01:40:13.004Z,-1.60
2023-02-09T01:42:41.902Z,-1.70
2023-02-09T01:45:29.937Z,-1.70
2023-02-09T01:48:03.593Z,-1.70
2023-02-09T01:50:38.087Z,-1.70
2023-02-09T01:53:09.566Z,-1.70
2023-02-09T01:55:54.520Z,-1.80
2023-02-09T01:58:27.478Z,-1.80
2023-02-09T02:00:57.924Z,-1.80
2023-02-09T02:03:30.676Z,-1.80
2023-02-09T02:06:06.439Z,-1.80
2023-02-09T02:08:42.283Z,-1.80
2023-02-09T02:11:12.016Z,-1.80
2023-02-09T02:13:41.018Z,-1.80
2023-02-09T02:16:38.804Z,-1.90
2023-02-09T02:19:38.492Z,-2.00
2023-02-09T02:22:53.749Z,-2.00
2023-02-09T02:26:07.094Z,-2.10
2023-02-09T02:28:56.321Z,-2.10
2023-02-09T02:32:17.629Z,-2.20
2023-02-09T02:34:54.788Z,-2.30
2023-02-09T02:37:44.684Z,-2.20
2023-02-09T02:40:29.962Z,-2.20
2023-02-09T02:43:10.425Z,-2.20
2023-02-09T02:45:46.325Z,-2.30
2023-02-09T02:48:28.717Z,-2.30
2023-02-09T02:51:05.446Z,-2.30
2023-02-09T02:53:38.211Z,-2.30
2023-02-09T02:56:14.136Z,-2.40
2023-02-09T02:58:46.737Z,-2.30
2023-02-09T03:01:22.122Z,-2.30
2023-02-09T03:03:53.886Z,-2.40
2023-02-09T03:06:22.704Z,-2.40
2023-02-09T03:08:55.329Z,-2.40
2023-02-09T03:11:31.821Z,-2.40
2023-02-09T03:14:38.573Z,-2.40
2023-02-09T03:17:25.394Z,-2.40
2023-02-09T03:20:04.985Z,-2.40
2023-02-09T03:22:39.811Z,-2.40
2023-02-09T03:25:16.318Z,-2.40
2023-02-09T03:27:55.072Z,-2.40
2023-02-09T03:30:25.841Z,-2.40
2023-02-09T03:32:56.469Z,-2.40
2023-02-09T03:35:35.450Z,-2.40
2023-02-09T03:38:07.759Z,-2.40
2023-02-09T03:40:36.793Z,-2.50
2023-02-09T03:43:05.523Z,-2.50
2023-02-09T03:45:34.193Z,-2.50
2023-02-09T03:48:02.939Z,-2.60
2023-02-09T03:50:33.481Z,-2.70
2023-02-09T03:53:02.985Z,-2.80
2023-02-09T03:55:31.727Z,-2.80
2023-02-09T03:58:00.893Z,-2.70
2023-02-09T04:00:29.680Z,-2.80
2023-02-09T04:02:59.391Z,-2.70
2023-02-09T04:05:28.232Z,-2.70
2023-02-09T04:08:00.658Z,-2.70
2023-02-09T04:10:29.617Z,-2.70
2023-02-09T04:12:58.339Z,-2.70
2023-02-09T04:15:27.073Z,-2.70
2023-02-09T04:17:55.882Z,-2.70
2023-02-09T04:20:24.680Z,-2.70
2023-02-09T04:22:53.441Z,-2.70
2023-02-09T04:25:23.665Z,-2.70
2023-02-09T04:27:52.437Z,-2.70
2023-02-09T04:30:21.743Z,-2.70
2023-02-09T04:32:50.764Z,-2.70
2023-02-09T04:35:19.714Z,-2.70
2023-02-09T04:37:48.695Z,-2.70
2023-02-09T04:40:17.726Z,-2.70
2023-02-09T04:42:49.150Z,-2.70
2023-02-09T04:45:17.939Z,-2.80
2023-02-09T04:47:46.736Z,-2.70
2023-02-09T04:50:16.184Z,-2.80
2023-02-09T04:52:45.011Z,-2.80
2023-02-09T04:55:13.773Z,-2.80
2023-02-09T04:58:00.001Z,-2.80
2023-02-09T05:00:30.323Z,-2.80
2023-02-09T05:02:59.123Z,-2.80
2023-02-09T05:05:28.135Z,-2.90
2023-02-09T05:07:57.036Z,-2.90
2023-02-09T05:10:25.862Z,-2.90
2023-02-09T05:12:54.647Z,-3.00
2023-02-09T05:15:23.536Z,-3.00
2023-02-09T05:17:53.976Z,-3.00
2023-02-09T05:20:23.014Z,-3.00
2023-02-09T05:22:52.048Z,-3.10
2023-02-09T05:25:20.868Z,-3.10
2023-02-09T05:27:49.676Z,-3.10
2023-02-09T05:30:18.624Z,-3.10
2023-02-09T05:32:47.463Z,-3.10
2023-02-09T05:35:17.883Z,-3.00
2023-02-09T05:37:46.671Z,-3.10
2023-02-09T05:40:15.955Z,-3.00
2023-02-09T05:42:44.753Z,-3.10
2023-02-09T05:45:13.546Z,-3.10
2023-02-09T05:47:42.340Z,-3.10
2023-02-09T05:50:11.338Z,-3.10
2023-02-09T05:52:41.453Z,-3.10
2023-02-09T05:55:10.501Z,-3.10
2023-02-09T05:57:39.549Z,-3.10
2023-02-09T06:00:10.180Z,-3.10
2023-02-09T06:02:39.122Z,-3.10
2023-02-09T06:05:09.262Z,-3.20
2023-02-09T06:07:38.060Z,-3.20
2023-02-09T06:10:09.475Z,-3.20
2023-02-09T06:12:39.300Z,-3.20
2023-02-09T06:15:10.462Z,-3.20
2023-02-09T06:17:39.345Z,-3.20
2023-02-09T06:20:09.493Z,-3.10
2023-02-09T06:22:38.456Z,-3.10
2023-02-09T06:25:09.393Z,-3.00
2023-02-09T06:27:38.741Z,-2.90
2023-02-09T06:30:09.162Z,-2.70
2023-02-09T06:32:37.927Z,-2.60
2023-02-09T06:35:07.474Z,-2.40
2023-02-09T06:37:36.244Z,-2.20
2023-02-09T06:40:05.610Z,-1.90
2023-02-09T06:42:44.875Z,-1.60
2023-02-09T06:45:15.551Z,-1.40
2023-02-09T06:47:46.070Z,-1.20
2023-02-09T06:50:17.984Z,-0.90
2023-02-09T06:52:47.318Z,-0.80
2023-02-09T06:55:16.323Z,-0.70
2023-02-09T06:57:46.487Z,-0.60
2023-02-09T07:00:17.020Z,-0.40
2023-02-09T07:02:46.664Z,-0.10
2023-02-09T07:05:18.143Z,0.10
2023-02-09T07:07:47.892Z,0.30
2023-02-09T07:10:19.394Z,0.50
2023-02-09T07:12:49.622Z,0.70
2023-02-09T07:15:18.785Z,1.00
2023-02-09T07:17:47.696Z,1.00
2023-02-09T07:20:16.489Z,1.40
2023-02-09T07:22:45.386Z,1.80
2023-02-09T07:25:14.132Z,2.20
2023-02-09T07:27:45.531Z,2.50
2023-02-09T07:30:18.083Z,2.80
2023-02-09T07:32:46.915Z,2.90
2023-02-09T07:35:15.801Z,3.20
2023-02-09T07:37:44.635Z,3.50
2023-02-09T07:40:14.258Z,3.70
2023-02-09T07:42:43.021Z,3.80
2023-02-09T07:45:12.061Z,3.90
2023-02-09T07:47:42.298Z,4.00
2023-02-09T07:50:11.808Z,3.90
2023-02-09T07:52:40.546Z,4.20
2023-02-09T07:55:09.776Z,4.30
2023-02-09T07:57:38.581Z,4.50
2023-02-09T08:00:08.766Z,4.20
2023-02-09T08:02:39.290Z,3.40
2023-02-09T08:05:20.901Z,2.90
2023-02-09T08:07:50.034Z,2.60
2023-02-09T08:10:20.696Z,2.50
2023-02-09T08:13:10.490Z,2.90
2023-02-09T08:15:46.115Z,3.40
2023-02-09T08:18:20.348Z,3.90
2023-02-09T08:20:53.357Z,4.60
2023-02-09T08:23:26.530Z,4.40
2023-02-09T08:25:56.470Z,4.30
2023-02-09T08:28:38.308Z,4.10
2023-02-09T08:31:12.591Z,4.40
2023-02-09T08:33:42.026Z,5.00
2023-02-09T08:36:13.807Z,5.10
2023-02-09T08:38:42.695Z,4.70
2023-02-09T08:41:15.096Z,4.50
2023-02-09T08:43:44.142Z,4.80
2023-02-09T08:46:14.773Z,5.40
2023-02-09T08:48:46.614Z,5.80
2023-02-09T08:51:17.901Z,6.00
2023-02-09T08:53:52.680Z,6.40
2023-02-09T08:56:23.408Z,6.60
2023-02-09T08:58:52.229Z,6.80
2023-02-09T09:01:20.960Z,6.90
2023-02-09T09:03:49.916Z,7.10
2023-02-09T09:06:21.829Z,7.20
2023-02-09T09:08:51.753Z,7.10
2023-02-09T09:11:20.934Z,7.30
2023-02-09T09:13:49.893Z,7.10
2023-02-09T09:16:22.195Z,7.50
2023-02-09T09:18:52.186Z,7.90
2023-02-09T09:21:22.600Z,7.60
2023-02-09T09:23:51.333Z,7.90
2023-02-09T09:26:20.479Z,8.00
2023-02-09T09:28:51.915Z,7.90
2023-02-09T09:31:21.799Z,8.00
2023-02-09T09:33:50.574Z,7.80
2023-02-09T09:36:20.715Z,7.70
2023-02-09T09:38:51.041Z,7.40
2023-02-09T09:41:25.608Z,7.40
2023-02-09T09:43:56.367Z,7.70
2023-02-09T09:46:36.784Z,7.80
2023-02-09T09:49:06.618Z,7.90
2023-02-09T09:51:41.434Z,7.70
2023-02-09T09:54:20.046Z,8.00
2023-02-09T09:56:49.502Z,8.10
2023-02-09T09:59:22.975Z,8.20
2023-02-09T10:01:54.408Z,8.10
2023-02-09T10:04:23.282Z,8.30
2023-02-09T10:07:03.175Z,8.70
2023-02-09T10:09:43.451Z,9.20
2023-02-09T10:12:30.016Z,8.20
2023-02-09T10:14:58.865Z,7.40
2023-02-09T10:17:27.590Z,8.10
2023-02-09T10:20:05.535Z,8.60
2023-02-09T10:22:34.422Z,8.80
2023-02-09T10:25:38.209Z,8.60
2023-02-09T10:28:07.432Z,8.10
2023-02-09T10:30:36.362Z,8.30
2023-02-09T10:33:05.412Z,8.50
2023-02-09T10:35:47.538Z,9.00
2023-02-09T10:38:20.252Z,8.90
2023-02-09T10:40:51.859Z,8.40
2023-02-09T10:43:25.490Z,8.20
2023-02-09T10:45:57.676Z,8.30
2023-02-09T10:48:28.613Z,8.60
2023-02-09T10:51:01.136Z,8.60
2023-02-09T10:53:33.465Z,8.10
2023-02-09T10:56:09.356Z,7.60
2023-02-09T10:58:39.057Z,7.50
2023-02-09T11:01:19.936Z,7.40
2023-02-09T11:04:02.206Z,7.40
2023-02-09T11:06:43.726Z,7.20
2023-02-09T11:09:18.616Z,7.00
2023-02-09T11:11:49.041Z,6.40
2023-02-09T11:14:20.874Z,6.30
2023-02-09T11:17:14.387Z,6.30
2023-02-09T11:20:07.024Z,6.30
2023-02-09T11:23:01.275Z,6.60
2023-02-09T11:25:36.495Z,7.00
2023-02-09T11:28:41.021Z,7.00
2023-02-09T11:31:46.903Z,6.80
2023-02-09T11:34:41.797Z,6.50
2023-02-09T11:37:29.233Z,6.60
2023-02-09T11:40:09.285Z,7.20
2023-02-09T11:42:45.344Z,7.80
2023-02-09T11:45:23.431Z,8.00
2023-02-09T11:48:10.166Z,8.10
2023-02-09T11:50:53.654Z,7.90
2023-02-09T11:53:40.233Z,7.80
2023-02-09T11:56:14.354Z,7.70
2023-02-09T11:58:49.986Z,7.70
2023-02-09T12:01:34.717Z,7.60
2023-02-09T12:04:14.171Z,7.60
2023-02-09T12:06:49.567Z,7.80
2023-02-09T12:09:47.010Z,7.90
2023-02-09T12:12:29.216Z,7.90
2023-02-09T12:15:12.301Z,7.90
2023-02-09T12:17:49.940Z,7.60
2023-02-09T12:20:31.014Z,7.60
2023-02-09T12:23:08.081Z,7.50
2023-02-09T12:25:57.596Z,7.30
2023-02-09T12:28:49.617Z,7.30
2023-02-09T12:31:28.146Z,7.20
2023-02-09T12:34:31.274Z,7.10
2023-02-09T12:37:28.850Z,7.00
2023-02-09T12:40:24.978Z,6.70
2023-02-09T12:43:28.716Z,6.50
2023-02-09T12:46:22.544Z,6.40
2023-02-09T12:49:00.775Z,6.30
2023-02-09T12:52:17.996Z,5.90
2023-02-09T12:54:50.975Z,5.60
2023-02-09T12:57:53.620Z,5.50
2023-02-09T13:00:44.480Z,5.60
2023-02-09T13:03:25.939Z,5.60
2023-02-09T13:06:01.699Z,5.50
2023-02-09T13:08:41.509Z,5.30
2023-02-09T13:11:27.287Z,5.10
2023-02-09T13:13:59.905Z,5.00
2023-02-09T13:16:57.975Z,4.90
2023-02-09T13:20:11.970Z,4.90
2023-02-09T13:22:58.533Z,4.80
2023-02-09T13:25:35.554Z,4.70
2023-02-09T13:28:16.343Z,4.80
2023-02-09T13:30:46.304Z,4.80
2023-02-09T13:33:37.583Z,4.70
2023-02-09T13:36:25.300Z,4.70
2023-02-09T13:38:55.082Z,4.70
2023-02-09T13:41:37.086Z,4.70
2023-02-09T13:44:20.893Z,4.70
2023-02-09T13:46:56.337Z,4.90
2023-02-09T13:49:26.972Z,4.90
2023-02-09T13:52:19.929Z,4.80
2023-02-09T13:54:48.888Z,4.80
2023-02-09T13:57:33.442Z,4.80
2023-02-09T14:00:16.779Z,4.60
2023-02-09T14:02:52.072Z,4.60
2023-02-09T14:05:34.115Z,4.80
2023-02-09T14:08:03.724Z,4.80
2023-02-09T14:10:36.150Z,4.80
2023-02-09T14:13:14.754Z,4.80
2023-02-09T14:16:06.452Z,4.70
2023-02-09T14:18:51.876Z,4.60
2023-02-09T14:21:31.764Z,4.50
2023-02-09T14:24:19.097Z,4.40
2023-02-09T14:26:53.734Z,4.40
2023-02-09T14:29:29.474Z,4.30
2023-02-09T14:32:01.280Z,4.30
2023-02-09T14:34:39.716Z,4.30
2023-02-09T14:37:32.047Z,4.30
2023-02-09T14:40:13.894Z,4.20
2023-02-09T14:43:00.994Z,4.20
2023-02-09T14:45:39.159Z,4.20
2023-02-09T14:48:23.284Z,4.20
2023-02-09T14:50:56.567Z,4.30
2023-02-09T14:53:29.236Z,4.20
2023-02-09T14:55:59.175Z,4.30
2023-02-09T14:58:30.405Z,4.30
2023-02-09T15:01:03.905Z,4.20
2023-02-09T15:03:32.738Z,4.30
2023-02-09T15:06:05.040Z,4.30
2023-02-09T15:08:39.209Z,4.30
2023-02-09T15:11:31.655Z,4.30
2023-02-09T15:14:04.184Z,4.20
2023-02-09T15:16:34.648Z,4.20
2023-02-09T15:19:05.580Z,4.20
2023-02-09T15:21:34.550Z,4.20
2023-02-09T15:24:03.254Z,4.30
2023-02-09T15:26:35.879Z,4.30
2023-02-09T15:29:10.671Z,4.20
2023-02-09T15:31:41.277Z,4.10
2023-02-09T15:34:14.633Z,4.00
2023-02-09T15:36:43.813Z,3.90
2023-02-09T15:39:22.079Z,3.90
2023-02-09T15:42:08.398Z,3.80
2023-02-09T15:44:54.340Z,3.70
2023-02-09T15:47:41.812Z,3.70
2023-02-09T15:50:11.074Z,3.80
2023-02-09T15:52:39.907Z,3.80
2023-02-09T15:55:09.861Z,3.90
2023-02-09T15:57:38.691Z,3.80
2023-02-09T16:00:17.461Z,3.70
2023-02-09T16:02:49.679Z,3.60
2023-02-09T16:05:18.669Z,3.60
2023-02-09T16:07:47.870Z,3.60
2023-02-09T16:10:23.839Z,3.50
2023-02-09T16:12:53.568Z,3.50
2023-02-09T16:15:25.046Z,3.50
2023-02-09T16:17:55.320Z,3.50
2023-02-09T16:20:26.034Z,3.40
2023-02-09T16:22:59.885Z,3.40
2023-02-09T16:25:32.054Z,3.40
2023-02-09T16:28:00.897Z,3.40
2023-02-09T16:30:35.114Z,3.30
2023-02-09T16:33:05.578Z,3.30
2023-02-09T16:35:35.347Z,3.30
2023-02-09T16:38:04.479Z,3.30
2023-02-09T16:40:34.738Z,3.30
2023-02-09T16:43:04.019Z,3.20
2023-02-09T16:45:37.222Z,3.20
2023-02-09T16:48:09.105Z,3.20
2023-02-09T16:50:42.206Z,3.20
2023-02-09T16:53:19.190Z,3.20
2023-02-09T16:55:49.586Z,3.20
2023-02-09T16:58:18.704Z,3.20
2023-02-09T17:00:48.079Z,3.20
2023-02-09T17:03:23.495Z,3.20
2023-02-09T17:05:55.938Z,3.20
2023-02-09T17:08:28.143Z,3.10
2023-02-09T17:10:58.060Z,3.10
2023-02-09T17:13:27.288Z,3.00
2023-02-09T17:16:00.875Z,2.90
2023-02-09T17:18:36.217Z,2.80
2023-02-09T17:21:09.695Z,2.70
2023-02-09T17:23:38.521Z,2.70
2023-02-09T17:26:07.537Z,2.60
2023-02-09T17:28:36.417Z,2.50
2023-02-09T17:31:17.735Z,2.50
2023-02-09T17:33:51.314Z,2.40
2023-02-09T17:36:27.008Z,2.40
2023-02-09T17:38:57.841Z,2.40
2023-02-09T17:41:34.324Z,2.30
2023-02-09T17:44:24.083Z,2.20
2023-02-09T17:46:55.942Z,2.20
2023-02-09T17:49:26.272Z,2.10
2023-02-09T17:51:55.123Z,2.00
2023-02-09T17:54:24.098Z,1.90
2023-02-09T17:56:52.867Z,1.90
2023-02-09T17:59:21.657Z,1.90
2023-02-09T18:01:51.234Z,1.90
2023-02-09T18:04:23.118Z,1.90
2023-02-09T18:06:53.402Z,1.90
2023-02-09T18:09:22.259Z,2.00
2023-02-09T18:12:02.202Z,1.90
2023-02-09T18:14:34.217Z,1.90
2023-02-09T18:17:03.542Z,2.00
2023-02-09T18:19:33.117Z,1.90
2023-02-09T18:22:04.471Z,1.90
2023-02-09T18:24:35.791Z,1.90
2023-02-09T18:27:04.894Z,1.90
2023-02-09T18:29:34.140Z,1.90
2023-02-09T18:32:05.160Z,1.70
2023-02-09T18:34:33.994Z,1.70
2023-02-09T18:37:04.294Z,1.70
2023-02-09T18:39:36.023Z,1.70
2023-02-09T18:42:05.069Z,1.70
2023-02-09T18:44:34.446Z,1.60
2023-02-09T18:47:03.291Z,1.60
2023-02-09T18:49:32.165Z,1.50
2023-02-09T18:52:01.744Z,1.60
2023-02-09T18:54:33.754Z,1.50
2023-02-09T18:57:02.663Z,1.50
2023-02-09T18:59:33.591Z,1.40
2023-02-09T19:02:02.652Z,1.40
2023-02-09T19:04:31.428Z,1.40
2023-02-09T19:07:02.051Z,1.40
2023-02-09T19:09:32.198Z,1.30
2023-02-09T19:12:01.304Z,1.30
2023-02-09T19:14:38.965Z,1.20
2023-02-09T19:17:11.171Z,1.20
2023-02-09T19:19:40.033Z,1.20
2023-02-09T19:22:09.134Z,1.10
2023-02-09T19:24:39.401Z,1.10
2023-02-09T19:27:11.386Z,1.10
2023-02-09T19:29:42.951Z,1.10
2023-02-09T19:32:14.448Z,1.00
2023-02-09T19:34:46.127Z,1.00
2023-02-09T19:37:16.496Z,0.90
2023-02-09T19:39:53.045Z,0.90
2023-02-09T19:42:23.545Z,0.90
2023-02-09T19:44:55.723Z,0.90
2023-02-09T19:47:26.084Z,0.90
2023-02-09T19:49:56.379Z,0.80
2023-02-09T19:52:27.169Z,0.80
2023-02-09T19:54:58.106Z,0.80
2023-02-09T19:57:27.427Z,0.70
2023-02-09T19:59:56.659Z,0.70
2023-02-09T20:02:25.436Z,0.60
2023-02-09T20:04:54.413Z,0.60
2023-02-09T20:07:26.494Z,0.60
2023-02-09T20:09:58.237Z,0.50
2023-02-09T20:12:27.060Z,0.60
2023-02-09T20:14:55.955Z,0.50
2023-02-09T20:17:24.808Z,0.40
2023-02-09T20:19:53.817Z,0.40
2023-02-09T20:22:22.752Z,0.40
2023-02-09T20:24:51.703Z,0.40
2023-02-09T20:27:22.074Z,0.40
2023-02-09T20:29:54.188Z,0.40
2023-02-09T20:32:23.338Z,0.40
2023-02-09T20:34:52.225Z,0.40
2023-02-09T20:37:21.321Z,0.40
2023-02-09T20:39:50.930Z,0.30
2023-02-09T20:42:38.696Z,0.20
2023-02-09T20:45:26.793Z,0.20
2023-02-09T20:47:55.784Z,0.20
2023-02-09T20:50:24.968Z,0.10
2023-02-09T20:52:53.956Z,0.10
2023-02-09T20:55:22.787Z,0.10
2023-02-09T20:57:53.222Z,0.00
2023-02-09T21:00:22.787Z,0.00
2023-02-09T21:02:51.757Z,-0.10
2023-02-09T21:05:21.151Z,0.00
2023-02-09T21:07:52.233Z,0.00
2023-02-09T21:10:21.358Z,0.00
2023-02-09T21:12:50.475Z,0.00
2023-02-09T21:15:20.818Z,0.00
2023-02-09T21:17:51.634Z,0.00
2023-02-09T21:20:20.669Z,0.00
2023-02-09T21:22:50.283Z,0.00
2023-02-09T21:25:20.240Z,0.10
2023-02-09T21:27:49.090Z,0.10
2023-02-09T21:30:19.665Z,0.00
2023-02-09T21:32:48.610Z,0.00
2023-02-09T21:35:17.859Z,0.00
2023-02-09T21:37:46.761Z,0.00
2023-02-09T21:40:16.314Z,-0.10
2023-02-09T21:42:45.380Z,-0.10
2023-02-09T21:45:14.921Z,-0.20
2023-02-09T21:47:45.457Z,-0.10
2023-02-09T21:50:15.131Z,-0.20
2023-02-09T21:52:43.997Z,-0.20
2023-02-09T21:55:13.106Z,-0.20
2023-02-09T21:57:41.901Z,-0.20
2023-02-09T22:00:13.272Z,-0.20
2023-02-09T22:02:42.033Z,-0.20
2023-02-09T22:05:12.970Z,-0.20
2023-02-09T22:07:41.680Z,-0.30
2023-02-09T22:10:10.890Z,-0.30
2023-02-09T22:12:39.927Z,-0.40
2023-02-09T22:15:09.966Z,-0.40
2023-02-09T22:17:39.735Z,-0.40
2023-02-09T22:20:11.167Z,-0.40
2023-02-09T22:22:42.621Z,-0.40
2023-02-09T22:25:11.358Z,-0.50
2023-02-09T22:27:40.185Z,-0.40
2023-02-09T22:30:10.746Z,-0.40
2023-02-09T22:32:39.542Z,-0.40
2023-02-09T22:35:09.127Z,-0.40
2023-02-09T22:37:37.878Z,-0.40
2023-02-09T22:40:09.515Z,-0.40
2023-02-09T22:42:38.563Z,-0.40
2023-02-09T22:45:08.645Z,-0.50
2023-02-09T22:47:37.559Z,-0.50
2023-02-09T22:50:07.269Z,-0.50
2023-02-09T22:52:36.080Z,-0.60
2023-02-09T22:55:04.995Z,-0.70
2023-02-09T22:57:35.182Z,-0.70
2023-02-09T23:00:07.679Z,-0.80
2023-02-09T23:02:36.627Z,-0.80
2023-02-09T23:05:05.731Z,-0.90
2023-02-09T23:07:34.726Z,-0.90
2023-02-09T23:10:03.508Z,-0.90
2023-02-09T23:12:32.290Z,-0.80
2023-02-09T23:15:02.394Z,-0.80
2023-02-09T23:17:32.982Z,-0.90
2023-02-09T23:20:02.105Z,-0.80
2023-02-09T23:22:31.032Z,-0.80
2023-02-09T23:25:01.668Z,-0.90
2023-02-09T23:27:30.660Z,-0.90
2023-02-09T23:29:59.427Z,-0.90
2023-02-09T23:32:29.625Z,-1.00
2023-02-09T23:37:37.527Z,-1.10
2023-02-09T23:40:07.668Z,-1.10
2023-02-09T23:42:36.455Z,-1.10
2023-02-09T23:45:06.383Z,-1.10
2023-02-09T23:47:36.801Z,-1.10
2023-02-09T23:50:05.912Z,-1.10
2023-02-09T23:52:34.682Z,-1.10
2023-02-09T23:55:04.036Z,-1.10
2023-02-09T23:57:32.777Z,-1.20
